Terminal Aerodrome Forecast
Issued by NWS

Home | Current Version | Previous Version | Text Only | Print | Product List | Glossary On
Versions: 1 2 3 4 5 6 7 8 9 10 11 12 13 14 15
000
FTUS44 KBMX 041723
TAFEET
TAF
KEET 041723Z 0418/0518 36005KT P6SM SCT050
     FM050000 00000KT P6SM SKC
      TEMPO 0509/0512 4SM BR=

USA.gov is the U.S. government's official web portal to all federal, state and local government web resources and services.